Time;durP1;ratioP1;P1;durP2;ratioP2;P2;SDS_P1;SDS_P2;PMS_P1;PMS_P2;Temp;Humidity;BMP_temperature;BMP_pressure;BME280_temperature;BME280_humidity;BME280_pressure;Samples;Min_cycle;Max_cycle;Signal;HPM_P1;HPM_P2
2022/08/18 00:01:40;;;;;;;3.58;2.40;;;;;;;23.50;90.62;100396.25;5033009;28;20041;-68
2022/08/18 00:04:07;;;;;;;4.72;2.60;;;;;;;23.40;91.35;100397.38;5032046;28;20048;-67
2022/08/18 00:06:33;;;;;;;4.57;2.60;;;;;;;23.31;92.14;100395.34;5030004;28;20043;-68
2022/08/18 00:09:02;;;;;;;4.70;2.95;;;;;;;23.09;94.13;100400.78;5031421;28;20041;-67
2022/08/18 00:11:30;;;;;;;2.95;2.08;;;;;;;23.08;95.22;100399.25;5032480;28;20049;-69
2022/08/18 00:13:55;;;;;;;4.95;2.78;;;;;;;23.12;95.12;100388.91;5029703;28;20034;-67
2022/08/18 00:16:21;;;;;;;4.95;2.63;;;;;;;23.13;95.42;100390.44;5030971;28;20099;-67
2022/08/18 00:18:46;;;;;;;4.25;3.08;;;;;;;23.27;94.73;100389.16;5032895;28;20083;-67
2022/08/18 00:21:12;;;;;;;3.88;2.70;;;;;;;23.35;94.31;100397.94;5031829;28;20030;-68
2022/08/18 00:23:37;;;;;;;7.13;2.78;;;;;;;23.39;94.14;100391.13;5015690;28;20109;-67
2022/08/18 00:26:03;;;;;;;5.25;3.45;;;;;;;23.56;92.67;100394.41;5012769;28;20434;-68
2022/08/18 00:28:29;;;;;;;4.88;3.30;;;;;;;23.47;93.32;100400.63;5012939;28;20034;-67
2022/08/18 00:30:55;;;;;;;4.25;3.20;;;;;;;23.35;94.19;100395.97;5015385;28;20049;-68
2022/08/18 00:33:21;;;;;;;6.32;3.80;;;;;;;23.32;94.23;100385.88;5031382;28;20035;-67
2022/08/18 00:35:46;;;;;;;6.60;3.40;;;;;;;23.38;94.12;100389.59;5051356;28;20114;-68
2022/08/18 00:38:12;;;;;;;9.25;3.60;;;;;;;23.35;94.67;100395.19;5052282;28;20473;-68
2022/08/18 00:40:44;;;;;;;7.72;3.15;;;;;;;23.38;94.42;100397.06;5049218;28;20044;-68
2022/08/18 00:43:18;;;;;;;6.15;3.60;;;;;;;23.41;93.94;100385.94;5031150;28;20034;-67
2022/08/18 00:45:43;;;;;;;6.97;3.45;;;;;;;23.40;94.06;100391.88;5031866;28;20084;-68
2022/08/18 00:48:12;;;;;;;6.30;3.78;;;;;;;23.36;94.03;100380.25;5031648;28;20069;-69
2022/08/18 00:50:46;;;;;;;5.63;3.78;;;;;;;23.44;93.63;100378.78;5030845;28;20417;-68
2022/08/18 00:53:25;;;;;;;4.88;3.47;;;;;;;23.42;93.72;100379.25;5031364;28;20060;-67
2022/08/18 00:55:51;;;;;;;7.07;4.20;;;;;;;23.43;93.58;100379.97;5029856;28;20029;-67
2022/08/18 00:58:26;;;;;;;5.22;3.72;;;;;;;23.47;93.15;100381.41;5031976;28;20083;-68
2022/08/18 01:00:51;;;;;;;6.57;3.83;;;;;;;23.44;93.35;100381.53;5016572;28;20045;-67
2022/08/18 01:03:20;;;;;;;5.15;3.63;;;;;;;23.39;93.70;100377.38;5011238;28;20117;-67
2022/08/18 01:06:14;;;;;;;9.57;4.70;;;;;;;23.42;93.21;100372.97;5011905;28;20038;-68
2022/08/18 01:08:40;;;;;;;7.75;4.13;;;;;;;23.33;94.22;100378.38;5012122;28;20723;-67
2022/08/18 01:11:06;;;;;;;5.57;3.90;;;;;;;23.08;95.37;100371.78;5011497;28;20033;-67
2022/08/18 01:13:32;;;;;;;6.95;4.60;;;;;;;23.17;95.09;100371.84;5011016;28;20421;-68
2022/08/18 01:21:49;;;;;;;7.47;4.68;;;;;;;23.15;95.79;100368.03;5012030;28;20112;-68
2022/08/18 01:27:19;;;;;;;6.88;4.10;;;;;;;23.20;94.26;100378.44;5031165;28;20400;-68
2022/08/18 01:29:46;;;;;;;9.88;5.03;;;;;;;23.16;94.54;100367.56;5031962;28;20033;-68
2022/08/18 01:32:21;;;;;;;9.05;4.85;;;;;;;23.02;94.61;100368.06;5031447;28;20037;-67
2022/08/18 01:34:49;;;;;;;7.60;4.68;;;;;;;23.05;95.24;100366.41;5041076;28;20044;-69
2022/08/18 01:37:17;;;;;;;7.55;4.85;;;;;;;23.00;95.98;100361.47;5031262;28;20095;-69
2022/08/18 01:39:44;;;;;;;7.15;4.43;;;;;;;23.04;95.32;100368.41;5032141;28;20098;-68
2022/08/18 01:42:11;;;;;;;8.18;4.82;;;;;;;23.11;94.26;100367.38;5031094;28;20040;-67
2022/08/18 01:44:40;;;;;;;9.63;5.20;;;;;;;23.09;94.49;100365.06;5029348;28;20063;-67
2022/08/18 01:47:07;;;;;;;8.40;4.60;;;;;;;23.07;94.94;100364.00;5031342;28;20044;-67
2022/08/18 01:49:33;;;;;;;9.52;4.50;;;;;;;23.13;94.40;100367.72;5029898;28;20041;-68
2022/08/18 01:51:59;;;;;;;9.32;4.45;;;;;;;23.00;94.71;100365.00;5031493;28;20434;-67
2022/08/18 01:54:28;;;;;;;9.73;5.53;;;;;;;22.95;94.83;100365.59;5029857;28;20052;-67
2022/08/18 01:56:55;;;;;;;8.23;4.43;;;;;;;23.07;93.99;100367.50;5013632;28;20119;-67
2022/08/18 01:59:20;;;;;;;8.65;4.57;;;;;;;23.04;94.00;100362.91;5013870;28;20041;-67
2022/08/18 02:01:46;;;;;;;7.95;4.53;;;;;;;23.03;94.22;100368.84;5034341;28;20056;-67
2022/08/18 02:04:14;;;;;;;9.95;4.55;;;;;;;22.96;93.60;100369.84;5034382;28;20389;-67
2022/08/18 02:06:40;;;;;;;8.13;4.50;;;;;;;22.89;94.05;100367.38;5034577;28;20037;-68
2022/08/18 02:09:05;;;;;;;8.00;4.70;;;;;;;22.86;94.36;100370.25;5035279;28;20060;-69
2022/08/18 02:11:31;;;;;;;6.45;4.25;;;;;;;22.87;94.30;100366.25;5034042;28;20045;-67
2022/08/18 02:13:56;;;;;;;7.32;4.15;;;;;;;22.89;93.97;100367.38;5033988;28;20040;-67
2022/08/18 02:16:22;;;;;;;6.47;4.18;;;;;;;22.79;94.49;100365.75;5035067;28;20072;-68
2022/08/18 02:18:47;;;;;;;6.53;4.30;;;;;;;22.75;94.34;100373.34;5034466;28;20406;-67
2022/08/18 02:21:16;;;;;;;7.38;3.97;;;;;;;22.74;94.67;100376.53;5034991;28;20052;-68
2022/08/18 02:23:43;;;;;;;6.97;3.95;;;;;;;22.78;94.77;100377.19;5033698;28;20052;-69
2022/08/18 02:26:12;;;;;;;7.85;4.57;;;;;;;22.65;94.97;100379.94;5034991;28;20393;-67
2022/08/18 02:28:37;;;;;;;7.15;4.07;;;;;;;22.57;95.80;100372.41;5034369;28;20087;-67
2022/08/18 02:31:09;;;;;;;7.13;4.05;;;;;;;22.58;95.99;100368.44;5035109;28;20041;-69
2022/08/18 02:33:34;;;;;;;;;;;;;;;22.57;96.10;100373.16;5035275;28;20464;-68
2022/08/18 02:36:01;;;;;;;6.22;3.70;;;;;;;22.45;95.65;100368.44;5054846;28;19916;-68
2022/08/18 02:38:27;;;;;;;6.70;4.18;;;;;;;22.51;95.16;100363.94;5038671;28;20038;-68
2022/08/18 02:40:55;;;;;;;7.05;4.30;;;;;;;22.36;95.62;100371.09;5034687;28;20462;-68
2022/08/18 02:43:21;;;;;;;9.48;4.20;;;;;;;22.25;96.76;100365.97;5033756;28;20033;-68
2022/08/18 02:45:47;;;;;;;7.97;4.32;;;;;;;22.20;96.72;100363.75;5033392;28;20044;-68
2022/08/18 02:48:12;;;;;;;8.13;4.25;;;;;;;22.07;97.37;100363.00;5035063;28;20480;-65
2022/08/18 02:50:45;;;;;;;9.80;3.90;;;;;;;21.99;97.94;100369.91;5035699;28;20059;-65
2022/08/18 02:53:17;;;;;;;6.93;3.97;;;;;;;21.95;98.25;100365.75;5032362;28;20091;-69
2022/08/18 02:55:43;;;;;;;7.57;4.20;;;;;;;21.94;98.57;100364.97;5033442;28;20044;-70
2022/08/18 02:58:08;;;;;;;6.63;4.10;;;;;;;21.84;98.49;100368.03;5033843;28;20041;-70
2022/08/18 03:00:34;;;;;;;8.77;4.15;;;;;;;21.84;98.46;100366.06;5033600;28;20037;-70
2022/08/18 03:03:00;;;;;;;5.40;3.80;;;;;;;21.88;98.21;100357.72;5032157;28;20033;-70
2022/08/18 03:05:27;;;;;;;7.55;3.72;;;;;;;21.86;97.98;100357.41;5033371;28;20052;-70
2022/08/18 03:07:54;;;;;;;5.85;3.72;;;;;;;21.82;98.36;100359.47;5033568;28;20041;-70
2022/08/18 03:10:19;;;;;;;6.82;3.92;;;;;;;21.75;99.12;100371.41;5031643;28;20053;-70
2022/08/18 03:12:45;;;;;;;8.60;4.15;;;;;;;21.81;98.39;100374.41;5031178;28;20075;-70
2022/08/18 03:15:11;;;;;;;11.82;3.70;;;;;;;21.81;97.95;100368.94;5028861;28;20117;-70
2022/08/18 03:17:37;;;;;;;7.18;4.20;;;;;;;21.64;98.95;100372.94;5033067;28;20140;-70
2022/08/18 03:20:03;;;;;;;6.95;4.50;;;;;;;21.60;98.78;100375.03;5030551;28;20485;-70
2022/08/18 03:22:29;;;;;;;7.68;4.68;;;;;;;21.59;98.92;100368.75;5032242;23;20386;-67
2022/08/18 03:24:55;;;;;;;7.53;3.88;;;;;;;21.45;99.40;100375.41;5004866;28;20037;-68
2022/08/18 03:27:20;;;;;;;7.72;4.15;;;;;;;21.37;100.00;100374.09;5016544;28;20501;-67
2022/08/18 03:29:46;;;;;;;6.68;4.15;;;;;;;21.51;99.50;100368.19;5012691;28;20037;-68
2022/08/18 03:32:11;;;;;;;9.85;4.78;;;;;;;21.36;100.00;100372.56;5009990;28;20038;-67
2022/08/18 03:34:37;;;;;;;10.68;4.13;;;;;;;21.36;100.00;100377.25;5014620;28;20128;-68
2022/08/18 03:37:03;;;;;;;7.60;4.43;;;;;;;21.41;100.00;100382.97;5012721;28;20038;-68
2022/08/18 03:39:28;;;;;;;7.28;3.80;;;;;;;21.37;100.00;100384.25;5012864;28;20030;-68
2022/08/18 03:41:55;;;;;;;8.82;4.40;;;;;;;21.33;100.00;100387.13;5011381;28;20553;-68
2022/08/18 03:44:21;;;;;;;8.70;4.72;;;;;;;21.38;100.00;100394.81;5012289;28;20026;-68
2022/08/18 03:46:49;;;;;;;7.90;4.40;;;;;;;21.61;98.78;100393.00;5012150;28;20045;-68
2022/08/18 03:49:15;;;;;;;8.77;4.28;;;;;;;21.50;99.68;100382.34;5011931;28;20123;-68
2022/08/18 03:51:45;;;;;;;7.45;4.32;;;;;;;21.41;100.00;100377.50;5008250;28;20497;-68
2022/08/18 03:54:12;;;;;;;7.65;4.20;;;;;;;21.46;100.00;100390.69;5004474;28;20034;-67
2022/08/18 03:56:40;;;;;;;7.88;4.20;;;;;;;21.50;99.73;100385.84;5011907;28;20112;-68
2022/08/18 03:59:21;;;;;;;7.88;5.05;;;;;;;21.54;99.52;100392.00;5012056;28;20041;-68
2022/08/18 04:01:48;;;;;;;9.65;4.30;;;;;;;21.47;99.33;100394.16;5010522;28;20038;-68
2022/08/18 04:04:20;;;;;;;7.30;4.43;;;;;;;21.52;99.31;100388.91;5011470;28;20047;-68
2022/08/18 04:06:49;;;;;;;8.60;4.40;;;;;;;21.47;98.69;100391.44;5009998;28;20037;-68
2022/08/18 04:09:15;;;;;;;7.22;4.43;;;;;;;21.47;99.63;100405.91;5012272;28;20045;-68
2022/08/18 04:11:43;;;;;;;7.88;4.63;;;;;;;21.51;99.52;100400.31;5011002;28;20466;-68
2022/08/18 04:14:11;;;;;;;7.68;4.15;;;;;;;21.61;99.34;100390.25;5011051;28;20498;-68
2022/08/18 04:16:39;;;;;;;7.78;4.45;;;;;;;21.56;99.48;100406.03;4998446;28;20116;-68
2022/08/18 04:19:05;;;;;;;7.70;4.10;;;;;;;21.62;99.45;100400.03;5011489;28;20045;-68
2022/08/18 04:21:34;;;;;;;6.40;3.85;;;;;;;21.47;99.81;100402.38;5010461;28;20026;-68
2022/08/18 04:24:04;;;;;;;7.75;4.35;;;;;;;21.49;99.87;100408.22;5010191;28;20030;-68
2022/08/18 04:26:35;;;;;;;8.43;4.30;;;;;;;21.47;99.97;100399.66;5012028;28;20042;-68
2022/08/18 04:29:01;;;;;;;6.97;3.85;;;;;;;21.45;100.00;100405.56;5011891;28;20038;-68
2022/08/18 04:31:29;;;;;;;6.75;4.20;;;;;;;21.49;100.00;100395.28;5011516;28;20116;-68
2022/08/18 04:33:57;;;;;;;7.53;4.18;;;;;;;21.45;100.00;100402.06;5012794;28;20009;-68
2022/08/18 04:36:23;;;;;;;8.70;4.72;;;;;;;21.50;100.00;100401.53;5017499;28;20088;-68
2022/08/18 04:38:48;;;;;;;6.43;4.15;;;;;;;21.54;100.00;100410.44;4995413;28;20057;-68
2022/08/18 04:41:14;;;;;;;8.10;4.82;;;;;;;21.44;100.00;100404.03;4995872;28;20094;-68
2022/08/18 04:43:41;;;;;;;8.50;4.10;;;;;;;21.49;100.00;100406.25;4996366;28;20120;-67
2022/08/18 04:46:07;;;;;;;7.60;4.07;;;;;;;21.57;100.00;100398.59;5007767;28;20022;-68
2022/08/18 04:48:38;;;;;;;8.30;4.93;;;;;;;21.69;100.00;100410.78;5011267;28;20042;-68
2022/08/18 04:51:08;;;;;;;7.63;4.75;;;;;;;21.65;100.00;100399.13;5000833;28;20065;-68
2022/08/18 04:53:43;;;;;;;8.88;4.50;;;;;;;21.64;100.00;100397.63;5010766;28;20067;-68
2022/08/18 04:56:38;;;;;;;7.90;4.50;;;;;;;21.69;100.00;100397.06;5005349;28;20433;-68
2022/08/18 04:59:08;;;;;;;8.05;4.40;;;;;;;21.77;100.00;100395.66;4989601;28;20053;-68
2022/08/18 05:01:46;;;;;;;9.40;4.72;;;;;;;21.73;100.00;100386.75;4991150;28;20034;-68
2022/08/18 05:04:14;;;;;;;7.80;4.63;;;;;;;21.77;100.00;100396.44;4990748;28;20054;-68
2022/08/18 05:06:41;;;;;;;9.90;4.55;;;;;;;21.84;100.00;100392.72;5010989;28;20128;-68
2022/08/18 05:09:08;;;;;;;7.32;4.03;;;;;;;21.89;100.00;100400.44;5004173;28;20037;-68
2022/08/18 05:11:35;;;;;;;9.27;4.25;;;;;;;21.92;100.00;100397.56;4994299;28;20510;-68
2022/08/18 05:14:03;;;;;;;6.47;3.95;;;;;;;22.00;100.00;100400.84;5000100;28;20401;-69
2022/08/18 05:16:35;;;;;;;10.50;4.65;;;;;;;22.09;100.00;100395.47;5007604;28;20077;-66
2022/08/18 05:19:10;;;;;;;9.82;4.43;;;;;;;22.04;100.00;100394.06;5010452;28;20041;-69
2022/08/18 05:21:40;;;;;;;8.18;5.07;;;;;;;22.09;100.00;100395.47;5001340;28;20471;-66
2022/08/18 05:24:07;;;;;;;7.87;4.03;;;;;;;22.23;100.00;100401.31;5006673;28;20080;-68
2022/08/18 05:26:33;;;;;;;8.05;4.20;;;;;;;22.27;100.00;100401.97;5003517;28;20038;-67
2022/08/18 05:28:58;;;;;;;7.00;4.10;;;;;;;22.35;100.00;100397.00;4997215;28;20046;-67
2022/08/18 05:31:27;;;;;;;9.35;4.75;;;;;;;22.53;100.00;100397.19;4998273;28;20069;-67
2022/08/18 05:33:54;;;;;;;7.53;4.40;;;;;;;22.65;100.00;100406.66;4993686;28;20064;-68
2022/08/18 05:36:47;;;;;;;7.60;4.28;;;;;;;22.81;100.00;100410.03;4999856;28;20080;-68
2022/08/18 05:39:16;;;;;;;6.57;4.13;;;;;;;22.82;100.00;100408.78;5001103;28;20022;-66
2022/08/18 05:41:47;;;;;;;8.02;4.20;;;;;;;22.66;100.00;100414.44;5005139;28;20045;-69
2022/08/18 05:44:17;;;;;;;9.80;4.93;;;;;;;22.67;100.00;100404.22;4999912;28;20093;-68
2022/08/18 05:46:55;;;;;;;9.65;5.00;;;;;;;22.80;100.00;100411.22;5007346;28;20121;-67
2022/08/18 05:49:24;;;;;;;7.57;4.55;;;;;;;22.81;100.00;100410.03;5005880;28;20056;-68
2022/08/18 05:51:56;;;;;;;7.13;4.45;;;;;;;22.87;100.00;100421.97;4991091;28;20030;-67
2022/08/18 05:57:16;;;;;;;9.82;4.65;;;;;;;23.14;100.00;100411.22;5002247;28;20041;-67
2022/08/18 05:59:43;;;;;;;7.40;4.13;;;;;;;23.24;99.69;100412.06;5009623;28;20116;-67
2022/08/18 06:02:40;;;;;;;8.25;4.63;;;;;;;23.33;99.45;100411.38;5010276;28;20049;-68
2022/08/18 06:05:10;;;;;;;8.68;4.95;;;;;;;23.13;99.45;100420.66;5006079;28;20042;-67
2022/08/18 06:07:50;;;;;;;11.15;5.53;;;;;;;23.19;100.00;100418.09;4992001;28;20452;-69
2022/08/18 06:10:16;;;;;;;9.93;5.25;;;;;;;23.38;99.73;100413.56;5002243;28;20048;-68
2022/08/18 06:12:46;;;;;;;9.82;5.65;;;;;;;23.46;99.89;100423.09;5006615;28;20042;-68
2022/08/18 06:15:14;;;;;;;12.73;5.32;;;;;;;23.70;98.92;100424.16;5008962;28;20042;-68
2022/08/18 06:17:42;;;;;;;12.98;5.78;;;;;;;23.64;97.36;100423.19;5008137;28;20093;-68
2022/08/18 06:20:17;;;;;;;7.57;4.85;;;;;;;23.68;97.66;100426.59;5009925;28;20026;-68
2022/08/18 06:22:49;;;;;;;10.55;5.70;;;;;;;23.77;97.98;100426.66;5007834;28;20060;-67
2022/08/18 06:25:20;;;;;;;9.50;4.50;;;;;;;23.88;97.89;100427.00;5005455;28;20038;-68
2022/08/18 06:28:01;;;;;;;9.23;5.25;;;;;;;23.87;97.06;100433.72;5007996;28;20046;-68
2022/08/18 06:31:04;;;;;;;7.70;4.55;;;;;;;23.97;96.95;100430.56;5009884;28;20049;-68
2022/08/18 06:33:38;;;;;;;9.52;5.00;;;;;;;24.08;97.03;100436.47;5007371;28;20469;-68
2022/08/18 06:36:19;;;;;;;9.10;5.05;;;;;;;23.96;97.31;100434.53;5009245;28;20118;-68
2022/08/18 06:39:07;;;;;;;11.82;5.95;;;;;;;24.05;97.85;100442.88;5009752;28;20045;-68
2022/08/18 06:41:37;;;;;;;9.43;5.45;;;;;;;24.46;97.91;100443.66;5006440;28;20037;-68
2022/08/18 06:44:21;;;;;;;9.63;5.40;;;;;;;24.78;96.62;100435.63;5006281;28;20128;-68
2022/08/18 06:47:03;;;;;;;8.95;5.35;;;;;;;24.81;92.85;100448.50;5009250;28;20407;-68
2022/08/18 06:49:53;;;;;;;10.20;5.22;;;;;;;24.76;94.05;100448.31;5013200;28;20441;-69
2022/08/18 06:52:20;;;;;;;9.07;4.90;;;;;;;24.88;94.10;100442.69;5012203;28;20034;-68
2022/08/18 06:54:47;;;;;;;8.60;4.63;;;;;;;24.89;90.70;100444.22;5003616;28;20033;-68
2022/08/18 06:57:41;;;;;;;8.57;4.43;;;;;;;24.93;90.24;100450.34;5013312;28;20030;-68
2022/08/18 07:00:21;;;;;;;8.05;4.53;;;;;;;24.85;89.85;100460.13;5013222;28;20314;-68
2022/08/18 07:02:57;;;;;;;7.15;4.30;;;;;;;24.67;90.58;100457.31;4994572;28;20058;-68
2022/08/18 07:05:26;;;;;;;7.13;3.83;;;;;;;24.33;91.83;100452.00;4993553;28;20047;-68
2022/08/18 07:08:10;;;;;;;8.77;4.50;;;;;;;24.30;93.62;100457.66;4994218;28;20129;-67
2022/08/18 07:10:39;;;;;;;9.25;4.70;;;;;;;24.56;93.64;100459.75;4994548;28;20502;-68
2022/08/18 07:13:11;;;;;;;7.22;4.30;;;;;;;24.60;92.97;100452.09;4991697;28;20026;-68
2022/08/18 07:15:37;;;;;;;8.15;4.57;;;;;;;24.75;91.84;100452.31;5011129;28;20441;-68
2022/08/18 07:18:06;;;;;;;8.57;4.95;;;;;;;24.39;92.49;100463.22;5011944;28;20396;-68
2022/08/18 07:20:56;;;;;;;9.00;5.15;;;;;;;24.56;91.87;100459.75;5013024;28;20037;-67
2022/08/18 07:23:24;;;;;;;10.07;4.97;;;;;;;24.27;92.80;100466.81;5001738;28;20518;-68
2022/08/18 07:25:58;;;;;;;11.38;6.50;;;;;;;24.03;93.91;100475.59;4993647;28;20282;-67
2022/08/18 07:28:48;;;;;;;14.82;6.70;;;;;;;24.18;93.97;100473.06;4987334;28;20166;-67
2022/08/18 07:31:23;;;;;;;11.52;5.93;;;;;;;24.29;93.84;100475.41;4995486;28;20072;-68
2022/08/18 07:33:57;;;;;;;11.82;6.05;;;;;;;24.29;94.10;100481.69;5008785;28;20325;-67
2022/08/18 07:36:28;;;;;;;11.65;5.82;;;;;;;24.42;93.78;100485.09;5008609;28;20509;-67
2022/08/18 07:38:59;;;;;;;13.43;6.55;;;;;;;24.45;93.13;100491.69;4993219;28;20048;-67
2022/08/18 07:41:31;;;;;;;24.08;10.00;;;;;;;24.18;92.69;100490.34;5012059;28;20052;-67
2022/08/18 07:44:02;;;;;;;23.35;10.05;;;;;;;24.07;93.45;100484.47;5002409;28;20030;-67
2022/08/18 07:46:38;;;;;;;23.35;9.77;;;;;;;24.07;93.74;100486.47;5013099;28;20540;-67
2022/08/18 07:49:05;;;;;;;25.80;10.68;;;;;;;24.03;93.22;100483.06;5012703;28;20044;-67
2022/08/18 07:51:44;;;;;;;31.42;11.32;;;;;;;23.49;95.14;100497.22;5001417;28;20034;-68
2022/08/18 07:54:16;;;;;;;31.23;10.98;;;;;;;23.42;95.71;100507.69;4992622;28;20069;-68
2022/08/18 07:56:56;;;;;;;25.05;10.35;;;;;;;23.29;96.18;100502.97;4992974;28;20038;-67
2022/08/18 07:59:47;;;;;;;31.95;11.00;;;;;;;23.32;96.37;100517.06;4996444;28;20033;-68
2022/08/18 08:02:20;;;;;;;25.33;10.25;;;;;;;23.41;96.36;100523.41;5005897;28;20478;-68
2022/08/18 08:05:23;;;;;;;27.15;11.20;;;;;;;23.56;95.32;100515.41;5010586;28;20080;-67
2022/08/18 08:08:00;;;;;;;23.38;9.60;;;;;;;23.42;95.12;100516.72;5012051;28;20080;-67
2022/08/18 08:10:28;;;;;;;23.35;9.57;;;;;;;23.12;96.33;100525.56;5003943;28;20033;-68
2022/08/18 08:13:50;;;;;;;23.45;9.18;;;;;;;23.10;97.13;100526.00;4992761;28;20165;-67
2022/08/18 08:16:21;;;;;;;;;;;;;;;23.03;97.67;100522.72;4973267;28;20116;-68
2022/08/18 08:18:47;;;;;;;;;;;;;;;23.12;97.08;100531.81;4993459;28;19917;-67
2022/08/18 08:21:22;;;;;;;19.02;8.50;;;;;;;23.23;96.82;100532.22;5011517;28;20270;-67
2022/08/18 08:23:51;;;;;;;24.45;9.23;;;;;;;23.24;96.54;100539.28;5010210;28;20039;-67
2022/08/18 08:26:44;;;;;;;24.75;9.63;;;;;;;23.41;95.82;100544.63;5009153;28;20037;-68
2022/08/18 08:29:27;;;;;;;20.75;8.23;;;;;;;23.29;96.04;100537.94;5006316;28;20045;-67
2022/08/18 08:31:56;;;;;;;23.52;7.95;;;;;;;23.33;95.94;100535.84;5002216;28;20116;-67
2022/08/18 08:34:43;;;;;;;19.63;8.05;;;;;;;23.42;96.13;100533.22;5011207;28;20403;-68
2022/08/18 08:37:14;;;;;;;19.85;8.13;;;;;;;23.38;95.89;100534.53;5011676;28;20133;-68
2022/08/18 08:39:56;;;;;;;18.67;6.63;;;;;;;23.27;95.76;100530.13;4996755;28;20034;-67
2022/08/18 08:42:51;;;;;;;20.35;8.25;;;;;;;23.37;96.56;100538.47;4990662;28;20046;-68
2022/08/18 08:45:28;;;;;;;19.27;7.47;;;;;;;23.37;96.07;100533.75;4992540;28;20061;-67
2022/08/18 08:48:03;;;;;;;22.25;7.85;;;;;;;23.35;96.43;100527.94;4991668;28;20035;-67
2022/08/18 08:50:35;;;;;;;23.30;7.85;;;;;;;23.54;95.40;100529.63;4990729;28;20041;-67
2022/08/18 08:53:07;;;;;;;21.50;7.25;;;;;;;23.49;95.27;100526.69;5010346;28;20065;-67
2022/08/18 08:55:43;;;;;;;23.17;7.55;;;;;;;23.48;95.83;100539.66;5005370;28;20129;-67
2022/08/18 08:58:39;;;;;;;24.17;8.63;;;;;;;23.57;95.24;100538.97;5011546;28;20041;-68
2022/08/18 09:01:13;;;;;;;21.98;8.35;;;;;;;23.62;95.04;100530.91;5010405;28;20386;-67
2022/08/18 09:03:48;;;;;;;22.48;8.40;;;;;;;23.56;95.56;100534.66;5010930;28;20121;-68
2022/08/18 09:06:35;;;;;;;21.38;7.93;;;;;;;23.60;95.10;100546.31;4998876;28;20125;-68
2022/08/18 09:09:07;;;;;;;22.92;8.13;;;;;;;23.68;94.78;100539.34;4991441;28;20038;-68
2022/08/18 09:11:54;;;;;;;24.70;9.23;;;;;;;23.68;94.79;100542.13;4992001;28;20042;-67
2022/08/18 09:14:56;;;;;;;23.85;9.30;;;;;;;23.84;94.90;100539.19;4991575;28;20042;-68
2022/08/18 09:17:57;;;;;;;25.08;9.68;;;;;;;24.04;94.45;100534.16;5005274;28;20053;-68
2022/08/18 09:20:46;;;;;;;;;;;;;;;24.13;93.10;100536.97;4970005;28;20511;-68
2022/08/18 09:23:18;;;;;;;25.67;9.57;;;;;;;24.18;92.06;100548.16;4995856;22;19930;-67
2022/08/18 09:25:47;;;;;;;21.13;9.38;;;;;;;24.18;92.39;100552.88;4990705;28;20077;-66
2022/08/18 09:28:38;;;;;;;22.98;8.70;;;;;;;24.22;92.10;100550.00;4990156;28;20031;-67
2022/08/18 09:31:06;;;;;;;23.30;8.50;;;;;;;24.31;91.62;100542.59;4978719;28;20432;-66
2022/08/18 09:33:44;;;;;;;25.95;9.57;;;;;;;24.24;91.21;100544.81;4979366;28;20048;-66
2022/08/18 09:36:30;;;;;;;24.98;9.88;;;;;;;24.17;91.24;100541.13;4970425;28;20031;-66
2022/08/18 09:41:54;;;;;;;24.77;9.38;;;;;;;24.13;92.95;100543.25;4952302;29;20071;-67
2022/08/18 09:44:44;;;;;;;22.90;8.88;;;;;;;24.12;92.30;100535.41;4951848;29;20023;-66
2022/08/18 09:47:11;;;;;;;17.75;7.72;;;;;;;24.22;92.80;100544.50;4935822;29;20035;-68
2022/08/18 09:49:45;;;;;;;19.75;7.90;;;;;;;24.30;92.67;100543.00;4953579;28;20035;-68
2022/08/18 09:52:33;;;;;;;23.08;8.00;;;;;;;24.33;91.55;100548.38;4964093;28;20023;-68
2022/08/18 09:55:04;;;;;;;15.10;7.03;;;;;;;24.49;91.07;100541.88;4976758;28;20048;-68
2022/08/18 09:57:38;;;;;;;21.73;8.63;;;;;;;24.45;90.18;100542.00;4990961;28;20069;-69
2022/08/18 10:00:06;;;;;;;17.08;7.47;;;;;;;24.58;89.24;100528.16;4991527;28;20046;-69
2022/08/18 10:02:34;;;;;;;16.05;6.57;;;;;;;24.64;89.32;100540.13;4959418;28;20114;-69
2022/08/18 10:05:18;;;;;;;17.25;7.28;;;;;;;24.87;88.51;100528.59;4951839;29;20518;-69
2022/08/18 10:07:52;;;;;;;14.43;7.35;;;;;;;25.03;88.02;100536.56;4949849;28;20123;-67
2022/08/18 10:10:23;;;;;;;18.42;7.40;;;;;;;25.15;88.08;100538.44;4952491;29;20027;-67
2022/08/18 10:12:55;;;;;;;15.65;7.07;;;;;;;25.26;86.19;100529.75;4933757;28;20038;-68
2022/08/18 10:15:29;;;;;;;16.95;7.47;;;;;;;25.42;85.96;100529.47;4967381;28;20039;-68
2022/08/18 10:18:04;;;;;;;16.75;8.30;;;;;;;25.37;85.89;100535.56;4971633;28;20475;-67
2022/08/18 10:20:37;;;;;;;18.65;8.18;;;;;;;25.35;85.83;100527.75;4970682;28;20093;-67
2022/08/18 10:23:06;;;;;;;13.55;6.68;;;;;;;25.50;85.88;100536.22;4955514;29;20425;-67
2022/08/18 10:25:31;;;;;;;15.75;7.28;;;;;;;25.59;85.63;100530.72;4956154;29;20041;-67
2022/08/18 10:27:57;;;;;;;14.85;7.50;;;;;;;25.64;86.00;100538.38;4956170;29;20031;-68
2022/08/18 10:30:32;;;;;;;16.00;6.93;;;;;;;25.65;85.28;100531.59;4956939;28;20031;-67
2022/08/18 10:33:02;;;;;;;15.30;6.90;;;;;;;25.68;83.76;100534.22;4953324;28;20143;-68
2022/08/18 10:35:34;;;;;;;13.77;6.15;;;;;;;25.79;83.82;100540.03;4971677;28;20444;-69
2022/08/18 10:38:17;;;;;;;13.57;6.30;;;;;;;25.93;83.04;100536.66;4975007;28;20063;-68
2022/08/18 10:40:54;;;;;;;19.88;6.70;;;;;;;25.86;84.48;100539.72;4965505;28;20035;-69
2022/08/18 10:43:37;;;;;;;13.82;6.47;;;;;;;25.97;84.12;100542.00;4973949;28;20144;-68
2022/08/18 10:46:03;;;;;;;18.60;7.25;;;;;;;25.87;82.68;100548.78;4975218;28;20098;-67
2022/08/18 10:48:33;;;;;;;14.82;6.97;;;;;;;25.94;82.82;100551.97;4968867;28;20436;-68
2022/08/18 10:51:10;;;;;;;19.42;7.72;;;;;;;26.04;83.11;100554.72;4955438;29;20043;-67
2022/08/18 10:54:08;;;;;;;18.67;8.05;;;;;;;26.29;81.87;100560.69;4953670;28;20035;-68
2022/08/18 10:56:42;;;;;;;19.08;8.93;;;;;;;26.48;81.36;100548.34;4973997;28;20055;-68
2022/08/18 10:59:14;;;;;;;17.13;7.72;;;;;;;26.62;80.17;100552.44;4975201;28;20476;-68
2022/08/18 11:02:04;;;;;;;19.27;6.88;;;;;;;26.84;79.89;100554.97;4974564;28;20077;-68
2022/08/18 11:04:36;;;;;;;15.13;7.80;;;;;;;26.89;79.50;100546.81;4954610;29;20054;-68
2022/08/18 11:07:04;;;;;;;13.13;7.07;;;;;;;27.09;79.50;100546.22;4955636;29;20408;-67
2022/08/18 11:09:30;;;;;;;14.82;6.72;;;;;;;27.13;78.76;100550.38;4955767;28;20027;-67
2022/08/18 11:11:59;;;;;;;15.80;6.75;;;;;;;27.26;79.07;100555.66;4954225;29;20417;-67
2022/08/18 11:14:59;;;;;;;12.18;5.88;;;;;;;27.35;78.42;100550.09;4960139;28;20045;-68
2022/08/18 11:17:41;;;;;;;14.75;6.57;;;;;;;27.48;77.95;100553.38;4970089;28;20035;-68
2022/08/18 11:20:09;;;;;;;13.30;6.50;;;;;;;27.56;75.44;100552.53;4957415;28;20594;-67
2022/08/18 11:22:36;;;;;;;12.75;5.80;;;;;;;27.34;76.20;100554.84;4967319;28;20039;-67
2022/08/18 11:25:18;;;;;;;12.05;6.13;;;;;;;27.53;77.18;100556.25;4954548;29;20037;-68
2022/08/18 11:27:46;;;;;;;10.60;5.50;;;;;;;27.61;76.80;100545.56;4954829;28;20491;-67
2022/08/18 11:30:11;;;;;;;12.85;6.18;;;;;;;27.62;74.90;100553.41;4969047;28;20041;-67
2022/08/18 11:32:39;;;;;;;9.48;4.70;;;;;;;27.69;76.17;100541.19;4964017;28;20492;-68
2022/08/18 11:35:34;;;;;;;11.20;5.18;;;;;;;27.93;75.67;100544.69;4969650;28;20111;-68
2022/08/18 11:38:10;;;;;;;9.85;5.38;;;;;;;28.04;73.92;100544.91;4961715;28;20042;-68
2022/08/18 11:40:40;;;;;;;11.98;5.07;;;;;;;28.02;73.53;100544.63;4974819;28;20110;-68
2022/08/18 11:43:09;;;;;;;8.30;5.07;;;;;;;28.08;73.59;100536.41;4966315;28;20054;-68
2022/08/18 11:45:45;;;;;;;10.93;5.38;;;;;;;28.10;72.84;100545.00;4950287;28;20459;-67
2022/08/18 11:48:13;;;;;;;9.57;4.93;;;;;;;28.21;72.96;100540.41;4964934;28;20038;-68
2022/08/18 11:50:54;;;;;;;9.98;5.18;;;;;;;28.19;72.15;100537.34;4946841;28;20023;-68
2022/08/18 11:53:34;;;;;;;9.57;5.40;;;;;;;28.05;72.69;100542.91;4946626;28;20030;-68
2022/08/18 11:56:23;;;;;;;9.63;5.60;;;;;;;28.00;72.06;100547.09;4948615;28;20046;-68
2022/08/18 11:59:04;;;;;;;11.82;4.88;;;;;;;27.93;72.64;100546.69;4964766;28;20376;-68
2022/08/18 12:01:32;;;;;;;9.75;5.85;;;;;;;27.98;72.96;100535.72;4947550;28;20066;-68